sensor_id;sensor_type;location;lat;lon;timestamp;temperature;humidity
27314;DHT22;14800;48.174;9.798;2024-01-27T00:01:45;6.20;85.50
27314;DHT22;14800;48.174;9.798;2024-01-27T00:04:10;6.20;86.30
27314;DHT22;14800;48.174;9.798;2024-01-27T00:06:36;6.20;85.40
27314;DHT22;14800;48.174;9.798;2024-01-27T00:09:02;6.10;85.40
27314;DHT22;14800;48.174;9.798;2024-01-27T00:11:27;6.10;85.40
27314;DHT22;14800;48.174;9.798;2024-01-27T00:13:53;6.10;85.30
27314;DHT22;14800;48.174;9.798;2024-01-27T00:16:18;6.10;85.20
27314;DHT22;14800;48.174;9.798;2024-01-27T00:18:45;6.10;85.00
27314;DHT22;14800;48.174;9.798;2024-01-27T00:21:11;6.10;84.80
27314;DHT22;14800;48.174;9.798;2024-01-27T00:23:36;6.10;84.40
27314;DHT22;14800;48.174;9.798;2024-01-27T00:26:02;6.00;84.20
27314;DHT22;14800;48.174;9.798;2024-01-27T00:28:27;6.00;84.00
27314;DHT22;14800;48.174;9.798;2024-01-27T00:30:53;5.90;84.10
27314;DHT22;14800;48.174;9.798;2024-01-27T00:33:19;5.80;83.90
27314;DHT22;14800;48.174;9.798;2024-01-27T00:35:45;5.70;84.00
27314;DHT22;14800;48.174;9.798;2024-01-27T00:38:10;5.70;84.20
27314;DHT22;14800;48.174;9.798;2024-01-27T00:40:36;5.60;84.20
27314;DHT22;14800;48.174;9.798;2024-01-27T00:43:04;5.50;84.20
27314;DHT22;14800;48.174;9.798;2024-01-27T00:45:30;5.50;84.40
27314;DHT22;14800;48.174;9.798;2024-01-27T00:47:59;5.40;84.40
27314;DHT22;14800;48.174;9.798;2024-01-27T00:50:25;5.40;84.60
27314;DHT22;14800;48.174;9.798;2024-01-27T00:52:50;5.30;84.60
27314;DHT22;14800;48.174;9.798;2024-01-27T00:55:16;5.30;84.50
27314;DHT22;14800;48.174;9.798;2024-01-27T00:57:43;5.20;84.50
27314;DHT22;14800;48.174;9.798;2024-01-27T01:00:09;5.30;84.60
27314;DHT22;14800;48.174;9.798;2024-01-27T01:02:36;5.10;84.60
27314;DHT22;14800;48.174;9.798;2024-01-27T01:05:02;5.00;84.70
27314;DHT22;14800;48.174;9.798;2024-01-27T01:07:32;5.00;84.70
27314;DHT22;14800;48.174;9.798;2024-01-27T01:09:58;4.90;84.80
27314;DHT22;14800;48.174;9.798;2024-01-27T01:12:24;4.90;85.10
27314;DHT22;14800;48.174;9.798;2024-01-27T01:14:51;4.80;85.30
27314;DHT22;14800;48.174;9.798;2024-01-27T01:17:16;4.80;85.40
27314;DHT22;14800;48.174;9.798;2024-01-27T01:19:42;4.70;85.30
27314;DHT22;14800;48.174;9.798;2024-01-27T01:22:08;4.70;85.30
27314;DHT22;14800;48.174;9.798;2024-01-27T01:24:34;4.60;85.20
27314;DHT22;14800;48.174;9.798;2024-01-27T01:26:59;4.60;85.40
27314;DHT22;14800;48.174;9.798;2024-01-27T01:29:26;4.50;85.40
27314;DHT22;14800;48.174;9.798;2024-01-27T01:31:52;4.50;85.50
27314;DHT22;14800;48.174;9.798;2024-01-27T01:34:18;4.50;85.60
27314;DHT22;14800;48.174;9.798;2024-01-27T01:36:44;4.40;85.60
27314;DHT22;14800;48.174;9.798;2024-01-27T01:39:11;4.40;85.90
27314;DHT22;14800;48.174;9.798;2024-01-27T01:41:38;4.30;86.00
27314;DHT22;14800;48.174;9.798;2024-01-27T01:44:04;4.30;86.10
27314;DHT22;14800;48.174;9.798;2024-01-27T01:46:30;4.20;86.30
27314;DHT22;14800;48.174;9.798;2024-01-27T01:48:55;4.10;86.30
27314;DHT22;14800;48.174;9.798;2024-01-27T01:51:22;4.10;86.50
27314;DHT22;14800;48.174;9.798;2024-01-27T01:53:49;4.00;86.60
27314;DHT22;14800;48.174;9.798;2024-01-27T01:56:17;4.00;87.50
27314;DHT22;14800;48.174;9.798;2024-01-27T01:58:44;3.90;86.70
27314;DHT22;14800;48.174;9.798;2024-01-27T02:01:09;3.90;86.80
27314;DHT22;14800;48.174;9.798;2024-01-27T02:03:35;3.90;86.80
27314;DHT22;14800;48.174;9.798;2024-01-27T02:06:01;3.90;86.50
27314;DHT22;14800;48.174;9.798;2024-01-27T02:08:26;3.90;86.40
27314;DHT22;14800;48.174;9.798;2024-01-27T02:10:52;3.90;86.50
27314;DHT22;14800;48.174;9.798;2024-01-27T02:13:18;3.90;86.50
27314;DHT22;14800;48.174;9.798;2024-01-27T02:15:45;3.90;86.30
27314;DHT22;14800;48.174;9.798;2024-01-27T02:18:11;3.90;86.00
27314;DHT22;14800;48.174;9.798;2024-01-27T02:20:36;3.90;85.90
27314;DHT22;14800;48.174;9.798;2024-01-27T02:23:03;3.80;85.90
27314;DHT22;14800;48.174;9.798;2024-01-27T02:25:30;3.80;86.00
27314;DHT22;14800;48.174;9.798;2024-01-27T02:27:56;3.80;86.10
27314;DHT22;14800;48.174;9.798;2024-01-27T02:30:22;3.80;86.40
27314;DHT22;14800;48.174;9.798;2024-01-27T02:32:47;3.70;86.60
27314;DHT22;14800;48.174;9.798;2024-01-27T02:35:13;3.70;86.50
27314;DHT22;14800;48.174;9.798;2024-01-27T02:37:42;3.70;86.40
27314;DHT22;14800;48.174;9.798;2024-01-27T02:40:08;3.70;86.30
27314;DHT22;14800;48.174;9.798;2024-01-27T02:42:37;3.80;86.50
27314;DHT22;14800;48.174;9.798;2024-01-27T02:45:03;3.80;86.60
27314;DHT22;14800;48.174;9.798;2024-01-27T02:47:29;3.70;86.40
27314;DHT22;14800;48.174;9.798;2024-01-27T02:49:55;3.70;86.40
27314;DHT22;14800;48.174;9.798;2024-01-27T02:52:21;3.80;86.50
27314;DHT22;14800;48.174;9.798;2024-01-27T02:54:47;3.80;86.50
27314;DHT22;14800;48.174;9.798;2024-01-27T02:57:12;3.70;86.50
27314;DHT22;14800;48.174;9.798;2024-01-27T02:59:38;3.70;86.60
27314;DHT22;14800;48.174;9.798;2024-01-27T03:02:07;3.70;86.70
27314;DHT22;14800;48.174;9.798;2024-01-27T03:04:32;3.70;86.70
27314;DHT22;14800;48.174;9.798;2024-01-27T03:06:58;3.60;86.80
27314;DHT22;14800;48.174;9.798;2024-01-27T03:09:24;3.70;86.90
27314;DHT22;14800;48.174;9.798;2024-01-27T03:11:49;3.60;87.00
27314;DHT22;14800;48.174;9.798;2024-01-27T03:14:15;3.60;87.00
27314;DHT22;14800;48.174;9.798;2024-01-27T03:16:43;3.60;87.00
27314;DHT22;14800;48.174;9.798;2024-01-27T03:19:09;3.60;87.00
27314;DHT22;14800;48.174;9.798;2024-01-27T03:21:34;3.60;86.70
27314;DHT22;14800;48.174;9.798;2024-01-27T03:24:00;3.60;86.60
27314;DHT22;14800;48.174;9.798;2024-01-27T03:26:26;3.60;86.50
27314;DHT22;14800;48.174;9.798;2024-01-27T03:28:51;3.60;86.20
27314;DHT22;14800;48.174;9.798;2024-01-27T03:31:17;3.50;86.20
27314;DHT22;14800;48.174;9.798;2024-01-27T03:33:42;3.60;86.10
27314;DHT22;14800;48.174;9.798;2024-01-27T03:36:12;3.50;86.00
27314;DHT22;14800;48.174;9.798;2024-01-27T03:38:38;3.50;86.00
27314;DHT22;14800;48.174;9.798;2024-01-27T03:41:04;3.50;85.80
27314;DHT22;14800;48.174;9.798;2024-01-27T03:43:30;3.50;85.60
27314;DHT22;14800;48.174;9.798;2024-01-27T03:45:57;3.40;85.50
27314;DHT22;14800;48.174;9.798;2024-01-27T03:48:22;3.40;85.60
27314;DHT22;14800;48.174;9.798;2024-01-27T03:50:48;3.40;85.80
27314;DHT22;14800;48.174;9.798;2024-01-27T03:53:14;3.40;86.00
27314;DHT22;14800;48.174;9.798;2024-01-27T03:55:39;3.30;86.00
27314;DHT22;14800;48.174;9.798;2024-01-27T03:58:05;3.40;85.90
27314;DHT22;14800;48.174;9.798;2024-01-27T04:00:31;3.30;85.60
27314;DHT22;14800;48.174;9.798;2024-01-27T04:02:59;3.30;85.40
27314;DHT22;14800;48.174;9.798;2024-01-27T04:05:25;3.20;85.30
27314;DHT22;14800;48.174;9.798;2024-01-27T04:07:51;3.20;85.30
27314;DHT22;14800;48.174;9.798;2024-01-27T04:10:17;3.10;85.30
27314;DHT22;14800;48.174;9.798;2024-01-27T04:12:43;3.10;86.30
27314;DHT22;14800;48.174;9.798;2024-01-27T04:15:10;3.00;85.50
27314;DHT22;14800;48.174;9.798;2024-01-27T04:17:37;2.90;85.60
27314;DHT22;14800;48.174;9.798;2024-01-27T04:20:03;2.90;85.80
27314;DHT22;14800;48.174;9.798;2024-01-27T04:22:28;2.90;86.10
27314;DHT22;14800;48.174;9.798;2024-01-27T04:24:54;2.80;86.30
27314;DHT22;14800;48.174;9.798;2024-01-27T04:27:19;2.80;86.50
27314;DHT22;14800;48.174;9.798;2024-01-27T04:29:45;2.70;86.60
27314;DHT22;14800;48.174;9.798;2024-01-27T04:32:11;2.70;86.80
27314;DHT22;14800;48.174;9.798;2024-01-27T04:34:38;2.70;87.00
27314;DHT22;14800;48.174;9.798;2024-01-27T04:37:04;2.70;87.10
27314;DHT22;14800;48.174;9.798;2024-01-27T04:39:29;2.70;86.80
27314;DHT22;14800;48.174;9.798;2024-01-27T04:41:55;2.80;87.60
27314;DHT22;14800;48.174;9.798;2024-01-27T04:44:21;2.70;86.60
27314;DHT22;14800;48.174;9.798;2024-01-27T04:46:46;2.70;86.60
27314;DHT22;14800;48.174;9.798;2024-01-27T04:49:13;2.60;86.60
27314;DHT22;14800;48.174;9.798;2024-01-27T04:51:39;2.60;86.70
27314;DHT22;14800;48.174;9.798;2024-01-27T04:54:04;2.70;86.80
27314;DHT22;14800;48.174;9.798;2024-01-27T04:56:30;2.70;86.80
27314;DHT22;14800;48.174;9.798;2024-01-27T04:58:56;2.70;86.80
27314;DHT22;14800;48.174;9.798;2024-01-27T05:01:21;2.70;86.70
27314;DHT22;14800;48.174;9.798;2024-01-27T05:03:47;2.70;86.50
27314;DHT22;14800;48.174;9.798;2024-01-27T05:06:12;2.70;86.10
27314;DHT22;14800;48.174;9.798;2024-01-27T05:08:38;2.70;86.00
27314;DHT22;14800;48.174;9.798;2024-01-27T05:11:04;2.60;86.00
27314;DHT22;14800;48.174;9.798;2024-01-27T05:13:30;2.60;85.90
27314;DHT22;14800;48.174;9.798;2024-01-27T05:15:56;2.50;85.80
27314;DHT22;14800;48.174;9.798;2024-01-27T05:18:22;2.50;86.10
27314;DHT22;14800;48.174;9.798;2024-01-27T05:20:47;2.40;86.10
27314;DHT22;14800;48.174;9.798;2024-01-27T05:23:13;2.40;86.30
27314;DHT22;14800;48.174;9.798;2024-01-27T05:25:38;2.40;86.60
27314;DHT22;14800;48.174;9.798;2024-01-27T05:28:05;2.30;86.80
27314;DHT22;14800;48.174;9.798;2024-01-27T05:30:30;2.40;86.90
27314;DHT22;14800;48.174;9.798;2024-01-27T05:32:56;2.40;86.70
27314;DHT22;14800;48.174;9.798;2024-01-27T05:35:21;2.40;86.50
27314;DHT22;14800;48.174;9.798;2024-01-27T05:37:47;2.30;86.30
27314;DHT22;14800;48.174;9.798;2024-01-27T05:40:13;2.30;86.20
27314;DHT22;14800;48.174;9.798;2024-01-27T05:42:38;2.30;86.30
27314;DHT22;14800;48.174;9.798;2024-01-27T05:45:06;2.30;86.50
27314;DHT22;14800;48.174;9.798;2024-01-27T05:47:32;2.20;86.30
27314;DHT22;14800;48.174;9.798;2024-01-27T05:49:57;2.20;87.10
27314;DHT22;14800;48.174;9.798;2024-01-27T05:52:23;2.20;86.30
27314;DHT22;14800;48.174;9.798;2024-01-27T05:54:51;2.10;86.30
27314;DHT22;14800;48.174;9.798;2024-01-27T05:57:17;2.10;86.30
27314;DHT22;14800;48.174;9.798;2024-01-27T05:59:42;2.00;86.30
27314;DHT22;14800;48.174;9.798;2024-01-27T06:02:08;2.00;86.50
27314;DHT22;14800;48.174;9.798;2024-01-27T06:04:33;2.00;86.60
27314;DHT22;14800;48.174;9.798;2024-01-27T06:06:59;2.00;86.80
27314;DHT22;14800;48.174;9.798;2024-01-27T06:09:25;1.90;86.80
27314;DHT22;14800;48.174;9.798;2024-01-27T06:11:51;1.90;87.00
27314;DHT22;14800;48.174;9.798;2024-01-27T06:14:16;2.00;87.20
27314;DHT22;14800;48.174;9.798;2024-01-27T06:16:42;2.00;87.20
27314;DHT22;14800;48.174;9.798;2024-01-27T06:19:08;2.00;87.20
27314;DHT22;14800;48.174;9.798;2024-01-27T06:21:35;2.00;87.30
27314;DHT22;14800;48.174;9.798;2024-01-27T06:24:00;2.00;87.20
27314;DHT22;14800;48.174;9.798;2024-01-27T06:26:26;2.00;87.10
27314;DHT22;14800;48.174;9.798;2024-01-27T06:28:52;2.00;86.90
27314;DHT22;14800;48.174;9.798;2024-01-27T06:31:17;2.00;86.70
27314;DHT22;14800;48.174;9.798;2024-01-27T06:33:43;1.90;86.60
27314;DHT22;14800;48.174;9.798;2024-01-27T06:36:09;1.90;86.60
27314;DHT22;14800;48.174;9.798;2024-01-27T06:38:37;1.90;86.50
27314;DHT22;14800;48.174;9.798;2024-01-27T06:41:03;1.90;86.50
27314;DHT22;14800;48.174;9.798;2024-01-27T06:43:29;1.90;86.60
27314;DHT22;14800;48.174;9.798;2024-01-27T06:45:54;1.90;86.60
27314;DHT22;14800;48.174;9.798;2024-01-27T06:48:22;1.80;86.50
27314;DHT22;14800;48.174;9.798;2024-01-27T06:50:50;1.80;86.50
27314;DHT22;14800;48.174;9.798;2024-01-27T06:53:18;1.70;86.50
27314;DHT22;14800;48.174;9.798;2024-01-27T06:55:44;1.70;86.40
27314;DHT22;14800;48.174;9.798;2024-01-27T06:58:10;1.70;86.50
27314;DHT22;14800;48.174;9.798;2024-01-27T07:00:35;1.70;86.60
27314;DHT22;14800;48.174;9.798;2024-01-27T07:03:01;1.60;86.50
27314;DHT22;14800;48.174;9.798;2024-01-27T07:05:28;1.60;86.50
27314;DHT22;14800;48.174;9.798;2024-01-27T07:07:53;1.60;86.70
27314;DHT22;14800;48.174;9.798;2024-01-27T07:10:19;1.60;86.80
27314;DHT22;14800;48.174;9.798;2024-01-27T07:12:45;1.50;86.90
27314;DHT22;14800;48.174;9.798;2024-01-27T07:15:11;1.50;87.00
27314;DHT22;14800;48.174;9.798;2024-01-27T07:17:36;1.50;87.20
27314;DHT22;14800;48.174;9.798;2024-01-27T07:20:02;1.40;87.40
27314;DHT22;14800;48.174;9.798;2024-01-27T07:22:28;1.40;87.70
27314;DHT22;14800;48.174;9.798;2024-01-27T07:24:54;1.40;87.90
27314;DHT22;14800;48.174;9.798;2024-01-27T07:27:22;1.40;88.00
27314;DHT22;14800;48.174;9.798;2024-01-27T07:29:48;1.40;88.20
27314;DHT22;14800;48.174;9.798;2024-01-27T07:32:14;1.40;88.40
27314;DHT22;14800;48.174;9.798;2024-01-27T07:34:43;1.40;88.40
27314;DHT22;14800;48.174;9.798;2024-01-27T07:37:09;1.50;88.50
27314;DHT22;14800;48.174;9.798;2024-01-27T07:39:35;1.50;88.40
27314;DHT22;14800;48.174;9.798;2024-01-27T07:42:00;1.50;88.10
27314;DHT22;14800;48.174;9.798;2024-01-27T07:44:27;1.50;88.00
27314;DHT22;14800;48.174;9.798;2024-01-27T07:46:52;1.50;88.00
27314;DHT22;14800;48.174;9.798;2024-01-27T07:49:18;1.50;88.10
27314;DHT22;14800;48.174;9.798;2024-01-27T07:51:44;1.50;88.20
27314;DHT22;14800;48.174;9.798;2024-01-27T07:54:10;1.50;88.50
27314;DHT22;14800;48.174;9.798;2024-01-27T07:56:37;1.50;88.80
27314;DHT22;14800;48.174;9.798;2024-01-27T07:59:02;1.50;89.20
27314;DHT22;14800;48.174;9.798;2024-01-27T08:01:28;1.50;89.30
27314;DHT22;14800;48.174;9.798;2024-01-27T08:03:53;1.60;89.40
27314;DHT22;14800;48.174;9.798;2024-01-27T08:06:27;1.60;89.80
27314;DHT22;14800;48.174;9.798;2024-01-27T08:08:53;1.60;90.00
27314;DHT22;14800;48.174;9.798;2024-01-27T08:11:19;1.70;90.00
27314;DHT22;14800;48.174;9.798;2024-01-27T08:13:45;1.70;90.00
27314;DHT22;14800;48.174;9.798;2024-01-27T08:16:11;1.80;90.10
27314;DHT22;14800;48.174;9.798;2024-01-27T08:18:38;1.80;90.10
27314;DHT22;14800;48.174;9.798;2024-01-27T08:21:05;1.90;90.10
27314;DHT22;14800;48.174;9.798;2024-01-27T08:23:30;1.90;90.00
27314;DHT22;14800;48.174;9.798;2024-01-27T08:25:56;2.00;90.00
27314;DHT22;14800;48.174;9.798;2024-01-27T08:28:22;2.10;90.00
27314;DHT22;14800;48.174;9.798;2024-01-27T08:30:47;2.10;90.00
27314;DHT22;14800;48.174;9.798;2024-01-27T08:33:13;2.20;90.00
27314;DHT22;14800;48.174;9.798;2024-01-27T08:35:38;2.30;90.00
27314;DHT22;14800;48.174;9.798;2024-01-27T08:38:04;2.30;90.00
27314;DHT22;14800;48.174;9.798;2024-01-27T08:40:31;2.40;90.00
27314;DHT22;14800;48.174;9.798;2024-01-27T08:42:57;2.40;90.10
27314;DHT22;14800;48.174;9.798;2024-01-27T08:45:23;2.50;90.10
27314;DHT22;14800;48.174;9.798;2024-01-27T08:47:49;2.50;90.10
27314;DHT22;14800;48.174;9.798;2024-01-27T08:50:15;2.60;90.10
27314;DHT22;14800;48.174;9.798;2024-01-27T08:52:41;2.70;90.00
27314;DHT22;14800;48.174;9.798;2024-01-27T08:55:06;2.70;90.00
27314;DHT22;14800;48.174;9.798;2024-01-27T08:57:32;2.80;90.00
27314;DHT22;14800;48.174;9.798;2024-01-27T08:59:58;2.80;90.30
27314;DHT22;14800;48.174;9.798;2024-01-27T09:02:23;2.90;90.00
27314;DHT22;14800;48.174;9.798;2024-01-27T09:04:49;2.90;90.00
27314;DHT22;14800;48.174;9.798;2024-01-27T09:07:14;3.00;90.00
27314;DHT22;14800;48.174;9.798;2024-01-27T09:09:40;3.00;90.00
27314;DHT22;14800;48.174;9.798;2024-01-27T09:12:06;3.00;90.00
27314;DHT22;14800;48.174;9.798;2024-01-27T09:14:32;3.10;89.90
27314;DHT22;14800;48.174;9.798;2024-01-27T09:16:59;3.10;90.00
27314;DHT22;14800;48.174;9.798;2024-01-27T09:19:25;3.20;90.00
27314;DHT22;14800;48.174;9.798;2024-01-27T09:21:51;3.20;90.00
27314;DHT22;14800;48.174;9.798;2024-01-27T09:24:16;3.30;90.00
27314;DHT22;14800;48.174;9.798;2024-01-27T09:26:42;3.30;90.00
27314;DHT22;14800;48.174;9.798;2024-01-27T09:29:07;3.40;90.10
27314;DHT22;14800;48.174;9.798;2024-01-27T09:31:34;3.50;90.10
27314;DHT22;14800;48.174;9.798;2024-01-27T09:34:00;3.60;90.10
27314;DHT22;14800;48.174;9.798;2024-01-27T09:36:26;3.60;90.00
27314;DHT22;14800;48.174;9.798;2024-01-27T09:38:52;3.70;90.10
27314;DHT22;14800;48.174;9.798;2024-01-27T09:41:18;3.70;90.10
27314;DHT22;14800;48.174;9.798;2024-01-27T09:43:44;3.80;90.10
27314;DHT22;14800;48.174;9.798;2024-01-27T09:46:15;3.80;90.10
27314;DHT22;14800;48.174;9.798;2024-01-27T09:48:40;3.90;90.10
27314;DHT22;14800;48.174;9.798;2024-01-27T09:51:08;4.00;90.10
27314;DHT22;14800;48.174;9.798;2024-01-27T09:53:34;4.00;90.00
27314;DHT22;14800;48.174;9.798;2024-01-27T09:56:00;4.10;90.00
27314;DHT22;14800;48.174;9.798;2024-01-27T09:58:28;4.20;90.00
27314;DHT22;14800;48.174;9.798;2024-01-27T10:00:59;4.30;90.00
27314;DHT22;14800;48.174;9.798;2024-01-27T10:03:25;4.40;90.00
27314;DHT22;14800;48.174;9.798;2024-01-27T10:05:53;4.40;90.00
27314;DHT22;14800;48.174;9.798;2024-01-27T10:08:23;4.50;90.00
27314;DHT22;14800;48.174;9.798;2024-01-27T10:10:54;4.60;90.00
27314;DHT22;14800;48.174;9.798;2024-01-27T10:13:23;4.70;89.80
27314;DHT22;14800;48.174;9.798;2024-01-27T10:16:08;4.80;89.60
27314;DHT22;14800;48.174;9.798;2024-01-27T10:18:35;4.80;89.10
27314;DHT22;14800;48.174;9.798;2024-01-27T10:21:21;4.90;88.90
27314;DHT22;14800;48.174;9.798;2024-01-27T10:23:48;4.90;88.50
27314;DHT22;14800;48.174;9.798;2024-01-27T10:26:14;5.00;88.50
27314;DHT22;14800;48.174;9.798;2024-01-27T10:28:39;5.10;88.40
27314;DHT22;14800;48.174;9.798;2024-01-27T10:31:09;5.10;88.40
27314;DHT22;14800;48.174;9.798;2024-01-27T10:33:34;5.20;88.40
27314;DHT22;14800;48.174;9.798;2024-01-27T10:36:00;5.20;88.40
27314;DHT22;14800;48.174;9.798;2024-01-27T10:38:36;5.30;88.50
27314;DHT22;14800;48.174;9.798;2024-01-27T10:41:07;5.40;88.10
27314;DHT22;14800;48.174;9.798;2024-01-27T10:43:35;5.50;88.10
27314;DHT22;14800;48.174;9.798;2024-01-27T10:46:02;5.50;88.00
27314;DHT22;14800;48.174;9.798;2024-01-27T10:48:30;5.60;88.70
27314;DHT22;14800;48.174;9.798;2024-01-27T10:50:56;5.70;87.90
27314;DHT22;14800;48.174;9.798;2024-01-27T10:53:24;5.80;87.90
27314;DHT22;14800;48.174;9.798;2024-01-27T10:55:54;5.80;88.60
27314;DHT22;14800;48.174;9.798;2024-01-27T10:58:23;5.90;87.30
27314;DHT22;14800;48.174;9.798;2024-01-27T11:00:50;6.00;87.30
27314;DHT22;14800;48.174;9.798;2024-01-27T11:03:18;6.10;87.10
27314;DHT22;14800;48.174;9.798;2024-01-27T11:05:46;6.10;86.50
27314;DHT22;14800;48.174;9.798;2024-01-27T11:08:12;6.20;86.30
27314;DHT22;14800;48.174;9.798;2024-01-27T11:10:39;6.20;86.40
27314;DHT22;14800;48.174;9.798;2024-01-27T11:13:07;6.30;87.00
27314;DHT22;14800;48.174;9.798;2024-01-27T11:15:33;6.30;86.60
27314;DHT22;14800;48.174;9.798;2024-01-27T11:17:59;6.40;86.50
27314;DHT22;14800;48.174;9.798;2024-01-27T11:20:25;6.40;86.00
27314;DHT22;14800;48.174;9.798;2024-01-27T11:22:51;6.50;86.10
27314;DHT22;14800;48.174;9.798;2024-01-27T11:25:18;6.50;85.60
27314;DHT22;14800;48.174;9.798;2024-01-27T11:27:45;6.50;85.80
27314;DHT22;14800;48.174;9.798;2024-01-27T11:30:32;6.50;85.90
27314;DHT22;14800;48.174;9.798;2024-01-27T11:33:01;6.60;85.60
27314;DHT22;14800;48.174;9.798;2024-01-27T11:35:27;6.60;86.00
27314;DHT22;14800;48.174;9.798;2024-01-27T11:37:54;6.70;86.00
27314;DHT22;14800;48.174;9.798;2024-01-27T11:40:19;6.70;85.80
27314;DHT22;14800;48.174;9.798;2024-01-27T11:42:58;6.80;85.50
27314;DHT22;14800;48.174;9.798;2024-01-27T11:45:24;6.80;84.70
27314;DHT22;14800;48.174;9.798;2024-01-27T11:47:50;6.80;85.30
27314;DHT22;14800;48.174;9.798;2024-01-27T11:50:19;6.90;85.50
27314;DHT22;14800;48.174;9.798;2024-01-27T11:52:46;6.90;85.20
27314;DHT22;14800;48.174;9.798;2024-01-27T11:55:12;7.00;85.20
27314;DHT22;14800;48.174;9.798;2024-01-27T11:57:37;7.10;84.90
27314;DHT22;14800;48.174;9.798;2024-01-27T12:00:03;7.10;84.60
27314;DHT22;14800;48.174;9.798;2024-01-27T12:02:30;7.20;84.60
27314;DHT22;14800;48.174;9.798;2024-01-27T12:04:55;7.20;84.20
27314;DHT22;14800;48.174;9.798;2024-01-27T12:07:21;7.30;83.70
27314;DHT22;14800;48.174;9.798;2024-01-27T12:09:50;7.30;83.40
27314;DHT22;14800;48.174;9.798;2024-01-27T12:12:16;7.40;83.30
27314;DHT22;14800;48.174;9.798;2024-01-27T12:14:46;7.50;83.30
27314;DHT22;14800;48.174;9.798;2024-01-27T12:17:12;7.50;83.10
27314;DHT22;14800;48.174;9.798;2024-01-27T12:19:38;7.50;83.40
27314;DHT22;14800;48.174;9.798;2024-01-27T12:22:04;7.60;83.60
27314;DHT22;14800;48.174;9.798;2024-01-27T12:24:30;7.70;83.40
27314;DHT22;14800;48.174;9.798;2024-01-27T12:26:57;7.70;83.10
27314;DHT22;14800;48.174;9.798;2024-01-27T12:29:24;7.80;82.90
27314;DHT22;14800;48.174;9.798;2024-01-27T12:31:50;7.80;82.60
27314;DHT22;14800;48.174;9.798;2024-01-27T12:34:17;7.90;82.20
27314;DHT22;14800;48.174;9.798;2024-01-27T12:36:43;7.90;81.90
27314;DHT22;14800;48.174;9.798;2024-01-27T12:39:09;8.00;81.50
27314;DHT22;14800;48.174;9.798;2024-01-27T12:41:35;8.00;81.10
27314;DHT22;14800;48.174;9.798;2024-01-27T12:44:01;8.00;80.60
27314;DHT22;14800;48.174;9.798;2024-01-27T12:46:30;8.10;80.60
27314;DHT22;14800;48.174;9.798;2024-01-27T12:48:57;8.10;80.20
27314;DHT22;14800;48.174;9.798;2024-01-27T12:51:22;8.10;79.80
27314;DHT22;14800;48.174;9.798;2024-01-27T12:53:48;8.20;78.70
27314;DHT22;14800;48.174;9.798;2024-01-27T12:56:14;8.20;78.70
27314;DHT22;14800;48.174;9.798;2024-01-27T12:58:41;8.10;77.30
27314;DHT22;14800;48.174;9.798;2024-01-27T13:01:07;8.20;77.50
27314;DHT22;14800;48.174;9.798;2024-01-27T13:03:34;8.10;77.60
27314;DHT22;14800;48.174;9.798;2024-01-27T13:06:00;8.20;77.90
27314;DHT22;14800;48.174;9.798;2024-01-27T13:08:26;8.20;78.00
27314;DHT22;14800;48.174;9.798;2024-01-27T13:10:51;8.20;77.80
27314;DHT22;14800;48.174;9.798;2024-01-27T13:13:17;8.20;77.70
27314;DHT22;14800;48.174;9.798;2024-01-27T13:15:42;8.20;77.30
27314;DHT22;14800;48.174;9.798;2024-01-27T13:18:09;8.30;76.80
27314;DHT22;14800;48.174;9.798;2024-01-27T13:20:36;8.30;76.60
27314;DHT22;14800;48.174;9.798;2024-01-27T13:23:01;8.30;77.20
27314;DHT22;14800;48.174;9.798;2024-01-27T13:25:27;8.40;76.00
27314;DHT22;14800;48.174;9.798;2024-01-27T13:27:53;8.40;73.50
27314;DHT22;14800;48.174;9.798;2024-01-27T13:30:18;8.40;73.60
27314;DHT22;14800;48.174;9.798;2024-01-27T13:32:44;8.40;73.30
27314;DHT22;14800;48.174;9.798;2024-01-27T13:35:10;8.40;73.70
27314;DHT22;14800;48.174;9.798;2024-01-27T13:37:36;8.50;73.70
27314;DHT22;14800;48.174;9.798;2024-01-27T13:40:03;8.50;74.00
27314;DHT22;14800;48.174;9.798;2024-01-27T13:42:29;8.50;74.00
27314;DHT22;14800;48.174;9.798;2024-01-27T13:44:55;8.50;74.30
27314;DHT22;14800;48.174;9.798;2024-01-27T13:47:21;8.50;74.40
27314;DHT22;14800;48.174;9.798;2024-01-27T13:49:46;8.50;74.40
27314;DHT22;14800;48.174;9.798;2024-01-27T13:52:12;8.60;74.10
27314;DHT22;14800;48.174;9.798;2024-01-27T13:54:38;8.60;73.40
27314;DHT22;14800;48.174;9.798;2024-01-27T13:57:04;8.60;73.50
27314;DHT22;14800;48.174;9.798;2024-01-27T13:59:30;8.60;73.80
27314;DHT22;14800;48.174;9.798;2024-01-27T14:01:56;8.60;73.70
27314;DHT22;14800;48.174;9.798;2024-01-27T14:04:23;8.60;73.80
27314;DHT22;14800;48.174;9.798;2024-01-27T14:06:53;8.60;74.00
27314;DHT22;14800;48.174;9.798;2024-01-27T14:09:22;8.70;74.30
27314;DHT22;14800;48.174;9.798;2024-01-27T14:11:48;8.60;74.20
27314;DHT22;14800;48.174;9.798;2024-01-27T14:14:14;8.60;74.40
27314;DHT22;14800;48.174;9.798;2024-01-27T14:16:39;8.70;74.60
27314;DHT22;14800;48.174;9.798;2024-01-27T14:19:05;8.70;74.10
27314;DHT22;14800;48.174;9.798;2024-01-27T14:21:32;8.70;74.30
27314;DHT22;14800;48.174;9.798;2024-01-27T14:23:57;8.70;74.20
27314;DHT22;14800;48.174;9.798;2024-01-27T14:26:29;8.70;74.30
27314;DHT22;14800;48.174;9.798;2024-01-27T14:28:55;8.70;73.70
27314;DHT22;14800;48.174;9.798;2024-01-27T14:31:21;8.70;73.60
27314;DHT22;14800;48.174;9.798;2024-01-27T14:33:46;8.70;72.50
27314;DHT22;14800;48.174;9.798;2024-01-27T14:36:13;8.80;73.60
27314;DHT22;14800;48.174;9.798;2024-01-27T14:38:39;8.70;73.50
27314;DHT22;14800;48.174;9.798;2024-01-27T14:41:06;8.80;73.70
27314;DHT22;14800;48.174;9.798;2024-01-27T14:43:32;8.80;73.70
27314;DHT22;14800;48.174;9.798;2024-01-27T14:45:58;8.80;73.70
27314;DHT22;14800;48.174;9.798;2024-01-27T14:48:23;8.80;73.70
27314;DHT22;14800;48.174;9.798;2024-01-27T14:50:49;8.80;73.60
27314;DHT22;14800;48.174;9.798;2024-01-27T14:53:18;8.80;73.60
27314;DHT22;14800;48.174;9.798;2024-01-27T14:55:44;8.80;73.60
27314;DHT22;14800;48.174;9.798;2024-01-27T14:58:10;8.80;73.50
27314;DHT22;14800;48.174;9.798;2024-01-27T15:00:36;8.80;73.50
27314;DHT22;14800;48.174;9.798;2024-01-27T15:03:05;8.80;73.30
27314;DHT22;14800;48.174;9.798;2024-01-27T15:05:31;8.70;73.30
27314;DHT22;14800;48.174;9.798;2024-01-27T15:08:01;8.80;73.30
27314;DHT22;14800;48.174;9.798;2024-01-27T15:10:27;8.70;73.20
27314;DHT22;14800;48.174;9.798;2024-01-27T15:12:53;8.70;73.10
27314;DHT22;14800;48.174;9.798;2024-01-27T15:15:18;8.70;73.00
27314;DHT22;14800;48.174;9.798;2024-01-27T15:17:44;8.70;72.80
27314;DHT22;14800;48.174;9.798;2024-01-27T15:20:10;8.70;72.70
27314;DHT22;14800;48.174;9.798;2024-01-27T15:22:35;8.60;72.50
27314;DHT22;14800;48.174;9.798;2024-01-27T15:25:01;8.60;72.50
27314;DHT22;14800;48.174;9.798;2024-01-27T15:27:27;8.60;72.50
27314;DHT22;14800;48.174;9.798;2024-01-27T15:29:52;8.60;72.50
27314;DHT22;14800;48.174;9.798;2024-01-27T15:32:18;8.60;72.50
27314;DHT22;14800;48.174;9.798;2024-01-27T15:34:47;8.60;72.50
27314;DHT22;14800;48.174;9.798;2024-01-27T15:37:12;8.60;72.30
27314;DHT22;14800;48.174;9.798;2024-01-27T15:39:38;8.60;72.20